Airfield :
LOGIN :

Register | Disclaimer

   EN    FR    IT 

 










Legend :    VFR   Marginal VFR   IFR   Intensive IFR   Very Intensive IFR
Visi :
Ceiling :
>= 8 km
>= 3000ft
5 to 8 km
1000 to 3000 ft
1500m to 5 km
500 to 1000 ft
800 to 1500m
200 to 500 ft
< 800m
< 200 ft
Symbols :   Thunderstorms  Fog  Heavy snow  Heavy precipitations  Wind > 20 kt
SIGMETs :     Misc.  Thunderstorms  Icing  Turbulence  Mountain Waves  Volcanic Ashes






- Airport Elevation : 0 ft


ETEB - Ansbach Army Heliport

CURRENT METAR :
  • 070956Z AUTO 30010KT 9999 FEW026 SCT033 BKN120 08/05 A2989 RMK AO2 SLP143 T00810049 $

EXPIRED METARs :
  • 070941Z AUTO 29013G18KT 9999 FEW022 SCT028 08/07 A2988 RMK AO2 SLP139 $
  • 070856Z AUTO 29007KT 9999 BKN020 OVC027 06/06 A2987 RMK AO2 DZE03 BKN V OVC SLP138 P0000 60000 T00570057 52020 $
  • 070803Z AUTO 29008KT 9999 SCT013 BKN020 BKN030 05/05 A2984 RMK AO2 DZE03 SLP130 $
  • 070754Z AUTO 28007KT 9999 -DZ SCT011 OVC019 05/05 A2983 RMK AO2 RAB24E25DZB25E27RAB27E42DZB42 CIG 012V019 SLP127 $
  • 070739Z AUTO 29006KT 9999 -RA OVC012 05/05 A2983 RMK AO2 RAB24E25DZB25E27RAB27 OVC V BKN SLP127 $
  • 070724Z AUTO 30005KT 9999 -RA BKN015 OVC021 05/05 A2982 RMK AO2 RAB24 SLP123 $
  • 070656Z AUTO 28008KT 9999 BKN015 BKN021 05/05 A2982 RMK AO2 DZE28 SLPNO P0000 T00520052 $

TAF TAF ETEB
Valid from the 07 at 09:00 until the 08 at 15:00 UTC


070900Z 0709/0815 29010G15KT 9000 -SHRA SCT012 BKN020 QNH2983INS
BECMG 0712/0713 29015G25KT 9000 -SHRA VCTS SCT020 BKN030 QNH2992INS
BECMG 0717/0718 30012KT 9999 NSW SCT035 QNH3007INS
BECMG 0721/0722 VRB06KT 9999 FEW100 QNH3006INS TX10/0713Z TN02/0803Z LAST NO AMDS AFT 0718 NEXT 0909



MET'MAP, your aeronautical weather chart ! - Copyright ORBIFLY December 2007 - Disclaimer

ORBIFLY MET'MAP TEAM :

Programming & Development : Alexandra Zaïnal
Concept & original design : Baudouin d'Aumeries
Assistance for programming : Marc-Olivier Méhu
Technical & hardware support : Manuel Goepfert

Contact : metmap@orbifly.com




SOURCES & CREDITS :

   NOAA